Time;durP1;ratioP1;P1;durP2;ratioP2;P2;SDS_P1;SDS_P2;PMS_P1;PMS_P2;Temp;Humidity;BMP_temperature;BMP_pressure;BME280_temperature;BME280_humidity;BME280_pressure;Samples;Min_cycle;Max_cycle;Signal;HPM_P1;HPM_P2
2023/10/15 00:00:34;;;;;;;9.15;1.88;;;;;;;10.62;65.28;101471.91;7391477;19;20055;-64
2023/10/15 00:03:03;;;;;;;10.75;2.10;;;;;;;10.64;65.29;101473.50;7394142;19;20085;-64
2023/10/15 00:05:31;;;;;;;8.43;2.00;;;;;;;10.66;65.13;101476.06;7393795;19;20010;-65
2023/10/15 00:07:58;;;;;;;9.20;1.80;;;;;;;10.65;65.19;101479.66;7393154;19;20026;-66
2023/10/15 00:10:28;;;;;;;10.40;2.22;;;;;;;10.57;65.02;101469.53;7390052;19;20027;-65
2023/10/15 00:12:57;;;;;;;10.60;2.28;;;;;;;10.58;65.59;101467.75;7392678;19;20496;-64
2023/10/15 00:15:28;;;;;;;8.13;2.15;;;;;;;10.48;65.44;101470.94;7391790;19;20015;-64
2023/10/15 00:18:02;;;;;;;6.22;1.75;;;;;;;10.42;65.47;101473.13;7390932;19;20078;-63
2023/10/15 00:20:38;;;;;;;9.52;1.85;;;;;;;10.51;65.45;101472.56;7392094;19;20026;-64
2023/10/15 00:23:06;;;;;;;9.07;1.75;;;;;;;10.42;65.40;101476.63;7392851;19;20031;-63
2023/10/15 00:25:36;;;;;;;8.95;1.85;;;;;;;10.53;65.15;101475.97;7392684;19;20531;-63
2023/10/15 00:28:09;;;;;;;9.82;2.38;;;;;;;10.58;64.62;101479.19;7392571;19;20026;-63
2023/10/15 00:30:39;;;;;;;6.70;1.63;;;;;;;10.48;64.93;101478.03;7391816;19;20018;-63
2023/10/15 00:33:11;;;;;;;7.82;1.58;;;;;;;10.46;64.65;101487.88;7392669;19;20272;-63
2023/10/15 00:35:44;;;;;;;6.30;1.67;;;;;;;10.39;64.95;101482.13;7392283;19;20386;-63
2023/10/15 00:38:16;;;;;;;;;;;;;;;10.24;64.19;101488.31;7390793;19;20390;-64
2023/10/15 00:40:51;;;;;;;6.80;1.98;;;;;;;10.25;65.08;101482.09;7391478;19;19918;-64
2023/10/15 00:43:20;;;;;;;6.25;1.55;;;;;;;10.36;64.88;101478.81;7390708;19;20010;-64
2023/10/15 00:45:48;;;;;;;9.55;1.80;;;;;;;10.31;64.75;101476.44;7392183;19;20015;-64
2023/10/15 00:48:36;;;;;;;9.02;1.85;;;;;;;10.33;64.72;101463.09;7391401;19;20014;-64
2023/10/15 00:51:13;;;;;;;7.55;1.70;;;;;;;10.36;64.98;101455.81;7391974;19;20098;-65
2023/10/15 00:53:54;;;;;;;9.02;1.90;;;;;;;10.28;65.12;101471.31;7391966;19;20039;-65
2023/10/15 00:56:35;;;;;;;6.70;1.50;;;;;;;10.30;64.97;101471.22;7391644;19;20007;-64
2023/10/15 01:01:38;;;;;;;5.15;1.60;;;;;;;10.20;64.52;101476.22;7392128;19;20039;-64
2023/10/15 01:04:06;;;;;;;9.40;2.08;;;;;;;10.17;64.51;101471.09;7391888;19;20355;-63
2023/10/15 01:06:36;;;;;;;7.45;1.70;;;;;;;10.26;64.29;101470.56;7391049;19;20019;-64
2023/10/15 01:11:55;;;;;;;8.35;1.63;;;;;;;10.30;63.92;101473.88;7391640;19;20023;-64
2023/10/15 01:14:33;;;;;;;8.70;1.80;;;;;;;10.36;63.44;101479.66;7391679;19;20023;-65
2023/10/15 01:17:01;;;;;;;10.05;1.65;;;;;;;10.38;63.70;101482.19;7391206;19;20500;-62
2023/10/15 01:19:34;;;;;;;8.63;1.58;;;;;;;10.40;63.25;101482.97;7388398;19;20014;-61
2023/10/15 01:22:17;;;;;;;5.83;1.50;;;;;;;10.47;63.04;101481.66;7391548;19;20026;-64
2023/10/15 01:24:50;;;;;;;5.47;1.35;;;;;;;10.35;63.52;101485.06;7391062;19;20263;-64
2023/10/15 01:27:30;;;;;;;6.65;1.45;;;;;;;10.36;63.29;101515.88;7390276;19;20019;-63
2023/10/15 01:29:59;;;;;;;6.28;1.80;;;;;;;10.39;63.67;101519.19;7388372;19;20043;-62
2023/10/15 01:32:31;;;;;;;6.20;1.83;;;;;;;10.46;63.75;101528.47;7391247;19;20092;-62
2023/10/15 01:35:00;;;;;;;7.60;2.17;;;;;;;10.47;64.34;101534.59;7390834;19;20077;-61
2023/10/15 01:37:30;;;;;;;9.77;1.90;;;;;;;10.51;65.21;101540.56;7390904;19;20018;-62
2023/10/15 01:40:17;;;;;;;10.20;1.70;;;;;;;10.41;65.97;101537.59;7387799;19;20022;-62
2023/10/15 01:42:46;;;;;;;5.90;1.42;;;;;;;10.31;67.38;101533.84;7390866;19;20015;-62
2023/10/15 01:45:17;;;;;;;6.15;1.70;;;;;;;10.24;68.10;101515.63;7390710;19;20017;-62
2023/10/15 01:50:32;;;;;;;8.82;2.30;;;;;;;10.22;68.53;101501.63;7389231;19;20086;-62
2023/10/15 01:53:03;;;;;;;8.27;2.28;;;;;;;10.18;68.71;101513.34;7390240;19;20494;-61
2023/10/15 01:55:35;;;;;;;9.10;2.35;;;;;;;10.23;68.21;101505.16;7394403;19;20039;-61
2023/10/15 01:58:05;;;;;;;4.50;1.50;;;;;;;10.08;68.69;101498.97;7394880;19;20492;-62
2023/10/15 02:00:34;;;;;;;4.47;1.23;;;;;;;10.11;68.66;101501.44;7396583;19;20014;-65
2023/10/15 02:03:02;;;;;;;3.60;1.00;;;;;;;10.13;69.08;101499.53;7397294;19;20035;-65
2023/10/15 02:05:42;;;;;;;4.45;1.10;;;;;;;10.20;69.08;101489.44;7397373;19;20019;-63
2023/10/15 02:08:23;;;;;;;3.80;1.00;;;;;;;10.14;69.85;101489.78;7393971;19;20040;-63
2023/10/15 02:10:52;;;;;;;4.30;1.30;;;;;;;10.09;69.73;101500.66;7394283;19;20018;-63
2023/10/15 02:13:26;;;;;;;7.20;1.60;;;;;;;10.07;69.68;101496.41;7397819;19;20022;-64
2023/10/15 02:15:57;;;;;;;8.05;1.20;;;;;;;9.94;69.67;101505.06;7395600;19;20027;-64
2023/10/15 02:18:29;;;;;;;4.00;1.15;;;;;;;9.96;70.01;101510.28;7396068;19;20028;-64
2023/10/15 02:23:25;;;;;;;6.82;1.50;;;;;;;10.08;69.80;101521.94;7396926;19;20027;-65
2023/10/15 02:25:57;;;;;;;4.15;1.02;;;;;;;10.20;69.43;101526.50;7394982;19;20087;-65
2023/10/15 02:28:32;;;;;;;7.35;1.42;;;;;;;10.23;69.48;101536.91;7392190;19;20015;-65
2023/10/15 02:33:32;;;;;;;5.63;1.40;;;;;;;10.16;70.25;101524.97;7395784;19;20014;-66
2023/10/15 02:36:00;;;;;;;9.60;1.85;;;;;;;10.09;70.19;101523.63;7393879;19;20024;-65
2023/10/15 02:38:34;;;;;;;7.72;1.63;;;;;;;10.18;70.45;101515.97;7394611;19;20053;-65
2023/10/15 02:41:09;;;;;;;;;;;;;;;9.95;71.25;101496.19;7393088;19;20029;-65
2023/10/15 02:43:40;;;;;;;5.18;1.42;;;;;;;9.89;71.05;101475.41;7396310;19;20301;-66
2023/10/15 02:46:22;;;;;;;6.22;1.73;;;;;;;9.94;70.51;101480.41;7394918;19;20321;-67
2023/10/15 02:48:53;;;;;;;6.25;1.50;;;;;;;9.84;70.88;101487.19;7392171;19;20019;-65
2023/10/15 02:51:25;;;;;;;7.50;1.45;;;;;;;9.79;70.66;101483.97;7396304;19;20533;-66
2023/10/15 02:54:18;;;;;;;7.13;1.50;;;;;;;9.82;70.61;101479.34;7396084;19;20023;-64
2023/10/15 02:56:41;;;;;;;7.50;1.60;;;;;;;9.90;70.60;101487.69;7394397;19;20022;-64
2023/10/15 02:59:09;;;;;;;7.35;1.58;;;;;;;9.77;70.55;101494.63;7393490;19;20022;-65
2023/10/15 03:01:38;;;;;;;7.93;1.52;;;;;;;9.81;70.40;101501.44;7395934;19;20019;-66
2023/10/15 03:04:09;;;;;;;7.20;1.50;;;;;;;9.87;70.30;101501.06;7395963;19;20022;-66
2023/10/15 03:06:41;;;;;;;7.57;1.70;;;;;;;9.83;70.12;101496.91;7393564;19;20039;-66
2023/10/15 03:09:11;;;;;;;4.93;1.27;;;;;;;9.79;70.75;101505.97;7393423;19;20051;-66
2023/10/15 03:11:39;;;;;;;6.38;1.50;;;;;;;9.59;71.39;101508.94;7395672;19;20398;-65
2023/10/15 03:14:06;;;;;;;6.13;1.40;;;;;;;9.57;71.06;101514.28;7395023;19;20021;-66
2023/10/15 03:16:35;;;;;;;8.45;1.40;;;;;;;9.75;70.72;101520.31;7394965;19;20022;-66
2023/10/15 03:19:23;;;;;;;5.95;1.33;;;;;;;9.84;70.37;101506.53;7392129;19;20532;-65
2023/10/15 03:21:59;;;;;;;3.78;1.20;;;;;;;9.84;70.01;101506.53;7395050;19;20044;-67
2023/10/15 03:24:32;;;;;;;5.72;1.30;;;;;;;9.96;69.99;101500.56;7395081;19;20018;-63
2023/10/15 03:27:00;;;;;;;8.35;1.40;;;;;;;9.96;69.77;101497.06;7394170;19;20374;-61
2023/10/15 03:29:29;;;;;;;5.57;1.20;;;;;;;9.94;69.81;101494.47;7392137;19;20044;-64
2023/10/15 03:32:15;;;;;;;6.43;1.60;;;;;;;9.93;70.08;101487.50;7394580;19;20094;-63
2023/10/15 03:34:47;;;;;;;8.40;1.25;;;;;;;9.74;70.29;101489.53;7394917;19;20349;-63
2023/10/15 03:37:15;;;;;;;5.55;1.10;;;;;;;9.74;70.47;101500.09;7392701;19;20044;-62
2023/10/15 03:39:55;;;;;;;5.18;0.93;;;;;;;9.76;70.27;101496.41;7392691;19;20085;-62
2023/10/15 03:42:26;;;;;;;3.65;0.80;;;;;;;9.70;70.06;101485.34;7393580;19;20039;-63
2023/10/15 03:44:59;;;;;;;5.68;0.98;;;;;;;9.78;69.71;101488.41;7394873;19;20011;-62
2023/10/15 03:47:28;;;;;;;3.17;0.95;;;;;;;9.74;69.70;101503.59;7394983;19;20023;-62
2023/10/15 03:49:56;;;;;;;4.20;0.98;;;;;;;9.67;69.86;101507.53;7392482;19;20090;-63
2023/10/15 03:52:26;;;;;;;4.13;0.95;;;;;;;9.61;69.81;101515.81;7395530;19;20049;-62
2023/10/15 03:54:55;;;;;;;4.00;0.80;;;;;;;9.62;69.58;101508.75;7395497;19;20018;-60
2023/10/15 03:57:27;;;;;;;1.23;0.50;;;;;;;9.65;69.30;101506.75;7396311;19;20077;-61
2023/10/15 03:59:55;;;;;;;2.67;0.88;;;;;;;9.69;69.29;101500.38;7393198;19;20011;-60
2023/10/15 04:02:45;;;;;;;3.20;0.50;;;;;;;9.60;69.43;101492.97;7395287;19;20014;-62
2023/10/15 04:05:19;;;;;;;2.75;0.60;;;;;;;9.53;69.60;101475.75;7392485;19;20022;-62
2023/10/15 04:07:53;;;;;;;3.38;0.70;;;;;;;9.46;69.71;101484.97;7393664;19;20015;-63
2023/10/15 04:10:23;;;;;;;3.65;0.70;;;;;;;9.41;70.24;101495.81;7392496;19;20025;-62
2023/10/15 04:12:52;;;;;;;4.68;0.90;;;;;;;9.48;69.92;101491.88;7393003;19;20022;-65
2023/10/15 04:15:21;;;;;;;1.50;0.65;;;;;;;9.50;70.28;101492.66;7392228;19;20019;-64
2023/10/15 04:17:51;;;;;;;3.50;0.90;;;;;;;9.45;70.22;101484.09;7388303;19;20081;-64
2023/10/15 04:20:35;;;;;;;3.28;0.70;;;;;;;9.43;70.06;101485.16;7391712;19;20123;-64
2023/10/15 04:23:03;;;;;;;4.68;1.00;;;;;;;9.37;70.55;101480.22;7392016;19;20022;-64
2023/10/15 04:25:32;;;;;;;5.65;0.90;;;;;;;9.41;70.78;101487.88;7392816;19;20098;-64
2023/10/15 04:28:14;;;;;;;5.22;0.85;;;;;;;9.53;70.50;101481.03;7390931;19;20096;-64
2023/10/15 04:30:42;;;;;;;4.47;0.88;;;;;;;9.47;70.35;101471.66;7389934;19;20026;-64
2023/10/15 04:33:20;;;;;;;2.80;0.80;;;;;;;9.57;70.46;101471.97;7391326;19;20022;-63
2023/10/15 04:35:49;;;;;;;3.50;0.90;;;;;;;9.61;70.23;101465.56;7392141;19;20025;-63
2023/10/15 04:38:38;;;;;;;3.25;0.77;;;;;;;9.69;70.33;101458.06;7389758;19;20046;-64
2023/10/15 04:41:04;;;;;;;5.28;1.27;;;;;;;9.69;69.98;101467.75;7392406;19;20031;-64
2023/10/15 04:43:41;;;;;;;5.57;0.93;;;;;;;9.67;69.61;101473.16;7392551;19;20047;-63
2023/10/15 04:46:09;;;;;;;3.92;0.80;;;;;;;9.68;69.78;101474.84;7392181;19;20531;-64
2023/10/15 04:48:36;;;;;;;3.50;0.80;;;;;;;9.65;69.70;101471.53;7391127;19;20019;-64
2023/10/15 04:51:13;;;;;;;3.13;0.57;;;;;;;9.65;69.74;101477.66;7392265;19;20019;-64
2023/10/15 04:53:50;;;;;;;2.75;0.70;;;;;;;9.70;69.35;101477.41;7391459;19;20377;-64
2023/10/15 04:56:22;;;;;;;1.85;0.63;;;;;;;9.74;68.78;101477.16;7392239;19;20353;-63
2023/10/15 04:58:49;;;;;;;2.63;0.70;;;;;;;9.66;68.79;101474.09;7389727;19;20022;-64
2023/10/15 05:01:17;;;;;;;4.43;0.73;;;;;;;9.77;68.13;101482.25;7389225;19;20082;-64
2023/10/15 05:03:46;;;;;;;1.15;0.32;;;;;;;9.75;68.23;101496.50;7391551;19;20018;-64
2023/10/15 05:06:14;;;;;;;2.67;0.60;;;;;;;9.71;68.12;101492.34;7391654;19;20028;-63
2023/10/15 05:08:42;;;;;;;1.45;0.57;;;;;;;9.70;67.73;101495.94;7388994;19;20026;-64
2023/10/15 05:11:09;;;;;;;3.53;0.55;;;;;;;9.55;67.55;101502.97;7391709;19;20015;-64
2023/10/15 05:13:37;;;;;;;4.60;0.60;;;;;;;9.58;67.68;101508.06;7392279;19;20023;-64
2023/10/15 05:16:05;;;;;;;3.30;0.60;;;;;;;9.65;67.31;101519.13;7392019;19;20014;-64
2023/10/15 05:18:32;;;;;;;2.25;0.50;;;;;;;9.58;67.84;101523.06;7391140;19;20023;-65
2023/10/15 05:21:03;;;;;;;1.83;0.50;;;;;;;9.64;67.85;101534.16;7390466;19;20050;-64
2023/10/15 05:23:31;;;;;;;3.97;0.70;;;;;;;9.56;68.34;101535.53;7391130;19;20022;-63
2023/10/15 05:25:58;;;;;;;2.58;0.70;;;;;;;9.56;68.29;101540.81;7391263;19;20366;-63
2023/10/15 05:28:29;;;;;;;1.70;0.47;;;;;;;9.51;68.68;101547.22;7389403;19;20015;-64
2023/10/15 05:31:00;;;;;;;3.05;0.45;;;;;;;9.45;69.21;101559.94;7396063;19;20018;-64
2023/10/15 05:33:28;;;;;;;1.50;0.50;;;;;;;9.43;69.60;101546.81;7398666;19;20022;-65
2023/10/15 05:35:59;;;;;;;3.85;0.60;;;;;;;9.40;69.56;101562.84;7398094;19;20033;-63
2023/10/15 05:38:27;;;;;;;4.50;0.90;;;;;;;9.53;69.18;101555.06;7396937;19;20086;-63
2023/10/15 05:40:57;;;;;;;2.88;0.68;;;;;;;9.68;69.06;101555.97;7397881;19;20032;-63
2023/10/15 05:43:25;;;;;;;4.03;1.15;;;;;;;9.64;69.11;101559.75;7398631;19;20030;-63
2023/10/15 05:45:53;;;;;;;3.38;1.15;;;;;;;9.65;68.80;101556.16;7398961;19;20057;-63
2023/10/15 05:48:21;;;;;;;3.38;0.98;;;;;;;9.66;68.86;101561.38;7396700;19;20014;-62
2023/10/15 05:50:49;;;;;;;4.15;0.90;;;;;;;9.58;69.17;101553.03;7397573;19;20106;-63
2023/10/15 05:53:17;;;;;;;4.50;1.20;;;;;;;9.73;68.98;101554.78;7399090;19;20025;-63
2023/10/15 05:55:45;;;;;;;3.33;1.13;;;;;;;9.79;69.18;101560.66;7398527;19;20022;-63
2023/10/15 05:58:13;;;;;;;4.55;1.13;;;;;;;9.82;69.33;101553.41;7397398;19;20017;-63
2023/10/15 06:00:40;;;;;;;5.32;0.95;;;;;;;9.72;69.87;101546.94;7395997;19;20018;-63
2023/10/15 06:03:11;;;;;;;3.78;1.13;;;;;;;9.85;69.94;101547.94;7397592;19;20055;-64
2023/10/15 06:05:39;;;;;;;4.05;1.05;;;;;;;9.80;70.58;101552.63;7397705;19;20034;-63
2023/10/15 06:08:08;;;;;;;2.80;0.80;;;;;;;9.69;70.99;101552.38;7396476;19;20026;-63
2023/10/15 06:10:36;;;;;;;5.07;1.00;;;;;;;9.72;71.06;101557.50;7396618;19;20031;-63
2023/10/15 06:13:03;;;;;;;2.72;0.82;;;;;;;9.75;71.09;101566.13;7397332;19;20022;-63
2023/10/15 06:15:31;;;;;;;2.85;0.90;;;;;;;9.73;71.17;101572.47;7396589;19;20029;-63
2023/10/15 06:17:59;;;;;;;4.03;0.90;;;;;;;9.76;71.21;101583.69;7396482;19;20031;-63
2023/10/15 06:20:28;;;;;;;3.28;0.90;;;;;;;9.77;70.58;101587.22;7395359;19;20010;-63
2023/10/15 06:22:56;;;;;;;3.40;0.80;;;;;;;9.67;71.02;101594.81;7396978;19;20052;-63
2023/10/15 06:25:24;;;;;;;3.67;1.05;;;;;;;9.69;70.93;101577.06;7397039;19;20017;-64
2023/10/15 06:27:52;;;;;;;4.28;0.95;;;;;;;9.84;71.00;101577.97;7396132;19;20484;-64
2023/10/15 06:30:20;;;;;;;4.93;0.85;;;;;;;9.82;71.19;101581.66;7394996;19;20545;-64
2023/10/15 06:32:52;;;;;;;3.90;0.90;;;;;;;9.91;70.73;101583.75;7396461;19;20508;-64
2023/10/15 06:35:27;;;;;;;4.90;1.10;;;;;;;9.81;71.22;101587.91;7396699;19;20025;-64
2023/10/15 06:37:55;;;;;;;3.13;0.90;;;;;;;9.76;71.87;101598.72;7396188;19;20051;-64
2023/10/15 06:40:24;;;;;;;3.58;0.80;;;;;;;9.89;71.14;101590.94;7393900;19;20035;-64
2023/10/15 06:42:53;;;;;;;4.00;0.90;;;;;;;9.96;70.97;101608.19;7394461;19;20022;-64
2023/10/15 06:45:20;;;;;;;2.97;0.75;;;;;;;9.97;71.12;101609.88;7395677;19;20018;-65
2023/10/15 06:47:51;;;;;;;4.18;0.80;;;;;;;10.01;70.98;101619.34;7395641;19;20022;-64
2023/10/15 06:50:22;;;;;;;4.53;1.17;;;;;;;9.95;71.62;101624.97;7394457;19;20428;-64
2023/10/15 06:52:53;;;;;;;4.65;1.15;;;;;;;9.89;71.87;101623.53;7395312;19;20023;-64
2023/10/15 06:55:21;;;;;;;5.00;1.10;;;;;;;9.94;72.10;101639.16;7395434;19;20491;-64
2023/10/15 06:57:50;;;;;;;4.55;0.80;;;;;;;9.77;72.25;101638.31;7394566;19;20019;-65
2023/10/15 07:00:21;;;;;;;2.67;0.82;;;;;;;9.70;72.44;101636.97;7394681;19;20026;-66
2023/10/15 07:02:51;;;;;;;4.88;0.90;;;;;;;9.81;72.62;101643.44;7395182;19;20356;-65
2023/10/15 07:05:20;;;;;;;3.85;0.90;;;;;;;9.61;72.61;101634.81;7395298;19;20139;-65
2023/10/15 07:07:48;;;;;;;2.58;0.73;;;;;;;9.55;72.39;101647.53;7395713;19;20078;-65
2023/10/15 07:10:17;;;;;;;3.20;0.57;;;;;;;9.54;72.21;101654.63;7392086;19;20014;-64
2023/10/15 07:12:46;;;;;;;3.03;0.70;;;;;;;9.50;72.26;101640.72;7394590;19;20018;-65
2023/10/15 07:15:14;;;;;;;3.50;0.77;;;;;;;9.53;72.00;101642.31;7395208;19;20023;-64
2023/10/15 07:17:43;;;;;;;2.15;0.40;;;;;;;9.46;71.46;101643.59;7395181;19;20378;-63
2023/10/15 07:20:17;;;;;;;1.10;0.43;;;;;;;9.52;71.08;101624.75;7394005;19;20024;-62
2023/10/15 07:22:49;;;;;;;1.27;0.30;;;;;;;9.38;71.04;101580.56;7394478;19;20021;-62
2023/10/15 07:25:21;;;;;;;1.77;0.52;;;;;;;9.22;71.03;101582.34;7394787;19;20027;-62
2023/10/15 07:27:50;;;;;;;2.75;0.65;;;;;;;9.26;71.19;101587.38;7394650;19;20022;-62
2023/10/15 07:30:21;;;;;;;1.33;0.40;;;;;;;9.29;71.07;101610.16;7391114;19;20010;-62
2023/10/15 07:32:59;;;;;;;1.75;0.40;;;;;;;9.35;71.46;101611.59;7393079;19;20014;-62
2023/10/15 07:35:29;;;;;;;2.40;0.73;;;;;;;9.43;71.61;101619.97;7395404;19;20014;-62
2023/10/15 07:37:57;;;;;;;1.63;0.70;;;;;;;9.50;71.16;101631.91;7394451;19;20039;-62
2023/10/15 07:40:26;;;;;;;2.58;0.73;;;;;;;9.59;71.07;101643.78;7393768;19;20022;-62
2023/10/15 07:42:59;;;;;;;1.73;0.63;;;;;;;9.50;71.07;101646.00;7394782;19;20014;-63
2023/10/15 07:45:30;;;;;;;1.67;0.63;;;;;;;9.62;71.19;101651.56;7394357;19;20018;-62
2023/10/15 07:48:00;;;;;;;2.70;0.70;;;;;;;9.73;70.94;101657.94;7393201;19;20502;-63
2023/10/15 07:50:30;;;;;;;3.53;0.70;;;;;;;9.74;70.84;101664.94;7391334;19;20026;-63
2023/10/15 07:52:58;;;;;;;2.30;0.60;;;;;;;9.68;71.02;101667.91;7393686;19;20480;-63
2023/10/15 07:55:27;;;;;;;3.72;0.80;;;;;;;9.82;71.12;101684.81;7393778;19;20346;-63
2023/10/15 07:57:55;;;;;;;0.90;0.43;;;;;;;9.95;70.69;101696.41;7392763;19;20015;-63
2023/10/15 08:00:23;;;;;;;2.53;0.90;;;;;;;9.94;71.11;101703.50;7392002;19;20488;-63
2023/10/15 08:02:57;;;;;;;3.72;0.50;;;;;;;10.05;71.32;101710.00;7393217;19;20098;-64
2023/10/15 08:05:31;;;;;;;2.63;0.80;;;;;;;10.05;71.62;101716.16;7393114;19;20018;-64
2023/10/15 08:08:03;;;;;;;1.92;0.73;;;;;;;9.99;72.23;101716.47;7392798;19;20358;-66
2023/10/15 08:10:34;;;;;;;1.90;0.90;;;;;;;9.93;72.35;101722.97;7390083;19;20508;-64
2023/10/15 08:13:06;;;;;;;2.45;0.88;;;;;;;10.00;72.06;101732.28;7393108;19;20039;-63
2023/10/15 08:15:35;;;;;;;3.90;0.88;;;;;;;9.93;72.20;101733.56;7393123;19;20349;-64
2023/10/15 08:18:03;;;;;;;3.75;0.80;;;;;;;9.99;72.32;101743.78;7392986;19;20043;-64
2023/10/15 08:20:31;;;;;;;3.85;0.90;;;;;;;9.89;72.74;101750.53;7391514;19;20014;-64
2023/10/15 08:23:00;;;;;;;2.75;0.63;;;;;;;9.96;72.34;101759.84;7392877;19;20022;-64
2023/10/15 08:25:31;;;;;;;2.15;0.70;;;;;;;9.92;72.81;101760.97;7392607;19;20014;-63
2023/10/15 08:28:02;;;;;;;2.25;0.70;;;;;;;9.92;72.82;101765.38;7390738;19;20014;-63
2023/10/15 08:30:32;;;;;;;4.72;0.88;;;;;;;9.87;72.96;101755.03;7389001;19;20022;-63
2023/10/15 08:33:00;;;;;;;1.42;0.60;;;;;;;9.80;71.70;101731.66;7392993;19;20014;-63
2023/10/15 08:35:28;;;;;;;2.55;0.90;;;;;;;9.74;71.00;101727.56;7392894;19;20018;-63
2023/10/15 08:37:59;;;;;;;4.82;1.08;;;;;;;9.80;70.94;101727.22;7391975;19;20022;-63
2023/10/15 08:40:32;;;;;;;3.75;0.90;;;;;;;9.80;70.86;101718.44;7391631;19;20419;-63
2023/10/15 08:43:20;;;;;;;4.55;0.85;;;;;;;9.82;70.68;101717.41;7392318;19;20018;-63
2023/10/15 08:45:48;;;;;;;1.13;0.50;;;;;;;9.82;70.98;101701.56;7390446;19;20029;-63
2023/10/15 08:48:18;;;;;;;3.10;0.70;;;;;;;9.91;70.26;101695.72;7391738;19;20342;-63
2023/10/15 08:50:46;;;;;;;1.85;0.73;;;;;;;10.05;69.57;101688.81;7389628;19;20029;-63
2023/10/15 08:53:16;;;;;;;2.88;0.70;;;;;;;9.97;69.84;101682.19;7392076;19;20043;-63
2023/10/15 08:55:44;;;;;;;2.63;0.77;;;;;;;10.04;69.92;101690.63;7390197;19;20040;-63
2023/10/15 08:58:14;;;;;;;3.20;0.80;;;;;;;10.01;69.42;101686.34;7387063;19;20022;-63
2023/10/15 09:00:43;;;;;;;2.85;0.75;;;;;;;9.94;69.43;101682.34;7390032;19;20011;-63
2023/10/15 09:03:14;;;;;;;3.70;0.70;;;;;;;9.96;69.91;101688.41;7391296;19;20018;-63
2023/10/15 09:05:42;;;;;;;3.80;0.80;;;;;;;10.08;69.71;101704.53;7390140;19;20022;-64
2023/10/15 09:08:13;;;;;;;7.03;2.78;;;;;;;10.01;70.17;101704.03;7391043;19;20021;-63
2023/10/15 09:10:42;;;;;;;3.88;1.65;;;;;;;10.04;70.12;101710.94;7386142;19;20019;-64
2023/10/15 09:13:15;;;;;;;2.92;1.30;;;;;;;10.13;70.26;101713.91;7391508;19;20034;-63
2023/10/15 09:15:52;;;;;;;3.58;0.77;;;;;;;10.16;69.82;101718.19;7391140;19;20029;-63
2023/10/15 09:18:20;;;;;;;2.30;0.77;;;;;;;10.19;70.41;101718.03;7387954;19;20019;-63
2023/10/15 09:20:51;;;;;;;2.55;0.52;;;;;;;10.35;69.73;101732.13;7390282;19;20022;-63
2023/10/15 09:23:22;;;;;;;2.47;0.80;;;;;;;10.38;69.81;101723.13;7390242;19;20021;-63
2023/10/15 09:25:55;;;;;;;2.97;0.68;;;;;;;10.28;69.43;101732.56;7390368;19;20035;-63
2023/10/15 09:28:30;;;;;;;2.40;0.60;;;;;;;10.21;69.82;101732.00;7388572;19;20499;-63
2023/10/15 09:31:05;;;;;;;2.53;0.70;;;;;;;10.24;70.19;101737.13;7386753;19;20025;-63
2023/10/15 09:33:34;;;;;;;2.55;0.88;;;;;;;10.13;70.09;101748.31;7391389;19;20027;-63
2023/10/15 09:36:03;;;;;;;2.78;0.77;;;;;;;10.27;70.06;101752.03;7390818;19;20047;-63
2023/10/15 09:38:33;;;;;;;2.38;0.80;;;;;;;10.49;69.28;101758.69;7390042;19;20425;-63
2023/10/15 09:41:02;;;;;;;4.30;1.23;;;;;;;10.65;69.74;101771.03;7389650;19;20015;-63
2023/10/15 09:43:35;;;;;;;2.70;0.80;;;;;;;10.76;69.55;101771.28;7390494;19;20028;-63
2023/10/15 09:46:06;;;;;;;3.42;0.82;;;;;;;10.77;69.64;101772.97;7390244;19;20021;-63
2023/10/15 09:48:36;;;;;;;3.85;0.90;;;;;;;10.92;69.76;101776.53;7389455;19;20043;-63
2023/10/15 09:51:07;;;;;;;3.33;0.93;;;;;;;11.03;69.69;101782.06;7387902;19;20027;-63
2023/10/15 09:53:37;;;;;;;3.67;1.17;;;;;;;11.22;69.68;101779.16;7389940;19;20508;-64
2023/10/15 09:56:08;;;;;;;3.60;0.82;;;;;;;11.47;68.92;101776.72;7390320;19;20131;-64
2023/10/15 09:58:38;;;;;;;4.95;1.20;;;;;;;11.56;69.01;101777.09;7388088;19;20018;-64
2023/10/15 10:01:17;;;;;;;3.88;1.00;;;;;;;11.52;69.19;101778.22;7390180;19;20044;-64
2023/10/15 10:03:47;;;;;;;3.53;1.10;;;;;;;11.32;69.63;101766.19;7393911;19;20018;-64
2023/10/15 10:06:47;;;;;;;5.90;1.17;;;;;;;11.06;68.82;101771.25;7394263;19;20018;-65
2023/10/15 10:09:52;;;;;;;2.70;0.88;;;;;;;10.92;68.69;101779.19;7388309;19;20341;-63
2023/10/15 10:12:29;;;;;;;3.50;1.10;;;;;;;10.69;69.79;101789.31;7392194;19;20371;-63
2023/10/15 10:15:16;;;;;;;3.42;0.90;;;;;;;10.54;69.66;101778.75;7391537;19;20036;-64
2023/10/15 10:17:44;;;;;;;4.03;0.90;;;;;;;10.60;69.60;101773.06;7399165;19;20728;-63
2023/10/15 10:20:19;;;;;;;5.00;1.20;;;;;;;10.61;69.29;101775.66;7398113;19;20014;-64
2023/10/15 10:22:57;;;;;;;5.35;1.50;;;;;;;10.71;69.13;101786.56;7399882;19;20014;-64
2023/10/15 10:25:39;;;;;;;3.75;1.30;;;;;;;10.74;69.00;101792.53;7398720;19;20049;-64
2023/10/15 10:28:13;;;;;;;3.85;1.00;;;;;;;10.81;68.11;101793.03;7398994;19;20018;-63
2023/10/15 10:30:58;;;;;;;3.22;0.95;;;;;;;11.05;68.14;101797.84;7396239;19;20053;-63
2023/10/15 10:33:44;;;;;;;3.63;0.93;;;;;;;10.98;68.14;101797.34;7397484;19;20090;-63
2023/10/15 10:36:14;;;;;;;2.78;0.98;;;;;;;11.01;68.37;101796.31;7398899;19;20018;-65
2023/10/15 10:38:43;;;;;;;2.78;0.80;;;;;;;11.04;67.03;101807.59;7397242;19;20019;-65
2023/10/15 10:41:15;;;;;;;3.38;0.77;;;;;;;11.12;66.84;101794.75;7396174;19;20098;-64
2023/10/15 10:43:46;;;;;;;3.92;0.95;;;;;;;11.18;66.48;101802.34;7396238;19;20018;-64
2023/10/15 10:46:21;;;;;;;2.00;0.70;;;;;;;11.28;66.35;101807.94;7395396;19;20112;-64
2023/10/15 10:49:13;;;;;;;3.95;0.98;;;;;;;11.33;67.02;101808.53;7393250;19;20582;-64
2023/10/15 10:51:42;;;;;;;2.67;0.90;;;;;;;11.31;66.84;101813.06;7395717;19;20044;-64
2023/10/15 10:54:09;;;;;;;3.33;0.85;;;;;;;11.38;66.00;101814.41;7395515;19;20025;-63
2023/10/15 10:56:40;;;;;;;3.10;0.80;;;;;;;11.41;65.10;101827.50;7395176;19;20492;-63
2023/10/15 10:59:08;;;;;;;2.25;0.70;;;;;;;11.40;65.44;101811.66;7392590;19;20014;-63
2023/10/15 11:01:42;;;;;;;1.98;0.90;;;;;;;11.40;64.58;101823.09;7394658;19;20044;-63
2023/10/15 11:04:11;;;;;;;2.08;0.60;;;;;;;11.36;64.53;101826.91;7395388;19;20029;-63
2023/10/15 11:06:45;;;;;;;2.17;0.55;;;;;;;11.41;64.32;101821.34;7395249;19;20022;-63
2023/10/15 11:09:16;;;;;;;3.75;0.80;;;;;;;11.47;64.14;101831.56;7392454;19;20019;-63
2023/10/15 11:11:48;;;;;;;2.13;0.70;;;;;;;11.48;64.10;101843.88;7394882;19;20026;-63
2023/10/15 11:14:17;;;;;;;3.25;0.73;;;;;;;11.52;64.02;101823.31;7394367;19;20495;-63
2023/10/15 11:16:45;;;;;;;2.45;0.60;;;;;;;11.56;63.99;101835.44;7398612;19;20487;-63
2023/10/15 11:19:21;;;;;;;2.63;0.70;;;;;;;11.62;63.66;101840.41;7391475;19;20018;-64
2023/10/15 11:21:50;;;;;;;3.83;0.50;;;;;;;11.51;63.86;101846.34;7395516;19;20035;-64
2023/10/15 11:24:20;;;;;;;5.82;0.80;;;;;;;11.58;63.20;101847.69;7395067;19;20043;-64
2023/10/15 11:26:48;;;;;;;3.22;0.60;;;;;;;11.64;62.82;101849.97;7393306;19;20015;-64
2023/10/15 11:29:20;;;;;;;1.67;0.70;;;;;;;11.73;62.97;101853.88;7392195;19;20018;-64
2023/10/15 11:31:50;;;;;;;2.42;0.70;;;;;;;11.87;62.24;101850.41;7394862;19;20476;-64
2023/10/15 11:34:22;;;;;;;3.20;0.77;;;;;;;11.97;61.57;101858.66;7392829;19;20030;-64
2023/10/15 11:36:55;;;;;;;2.88;0.73;;;;;;;11.99;61.30;101862.06;7394267;19;20026;-64
2023/10/15 11:39:29;;;;;;;2.33;0.70;;;;;;;12.12;61.46;101860.34;7391591;19;20018;-64
2023/10/15 11:41:57;;;;;;;2.10;0.77;;;;;;;12.16;61.44;101869.81;7394236;19;20035;-64
2023/10/15 11:44:26;;;;;;;2.67;0.68;;;;;;;12.24;61.21;101864.88;7392332;19;20372;-64
2023/10/15 11:46:55;;;;;;;3.95;0.70;;;;;;;12.30;59.79;101861.00;7394242;19;20044;-64
2023/10/15 11:49:25;;;;;;;1.17;0.40;;;;;;;12.37;59.81;101865.84;7390902;19;20064;-64
2023/10/15 11:51:55;;;;;;;1.55;0.47;;;;;;;12.15;59.58;101861.00;7393525;19;20022;-64
2023/10/15 11:54:32;;;;;;;2.33;0.90;;;;;;;11.87;59.12;101858.38;7393365;19;20101;-64
2023/10/15 11:57:00;;;;;;;3.10;0.68;;;;;;;11.77;58.72;101866.00;7393287;19;20610;-64
2023/10/15 11:59:28;;;;;;;3.28;0.80;;;;;;;11.74;59.34;101871.50;7390278;19;20021;-64
2023/10/15 12:01:56;;;;;;;1.88;0.55;;;;;;;11.69;59.73;101870.94;7393312;19;20015;-64